createdAt,value
2019-05-05T00:01:30.272Z,81.70
2019-05-05T00:04:10.902Z,81.50
2019-05-05T00:06:40.681Z,81.20
2019-05-05T00:09:10.628Z,81.90
2019-05-05T00:11:42.008Z,82.10
2019-05-05T00:14:15.787Z,82.00
2019-05-05T00:16:56.433Z,81.70
2019-05-05T00:19:32.919Z,81.70
2019-05-05T00:21:57.698Z,82.00
2019-05-05T00:24:27.560Z,82.10
2019-05-05T00:26:57.085Z,81.50
2019-05-05T00:29:27.052Z,81.90
2019-05-05T00:31:56.928Z,82.30
2019-05-05T00:34:26.828Z,83.60
2019-05-05T00:36:56.359Z,82.70
2019-05-05T00:39:26.312Z,82.10
2019-05-05T00:41:56.130Z,81.80
2019-05-05T00:44:26.140Z,82.20
2019-05-05T00:46:57.708Z,83.00
2019-05-05T00:49:29.272Z,82.90
2019-05-05T00:51:59.446Z,82.40
2019-05-05T00:54:29.225Z,82.40
2019-05-05T00:57:12.108Z,84.20
2019-05-05T00:59:42.034Z,83.30
2019-05-05T01:02:16.306Z,83.00
2019-05-05T01:05:04.489Z,83.00
2019-05-05T01:07:35.124Z,82.80
2019-05-05T01:10:06.886Z,82.60
2019-05-05T01:12:36.565Z,82.50
2019-05-05T01:15:27.634Z,82.80
2019-05-05T01:17:56.501Z,82.80
2019-05-05T01:20:26.075Z,86.30
2019-05-05T01:22:55.945Z,83.30
2019-05-05T01:25:27.813Z,83.30
2019-05-05T01:27:57.526Z,83.30
2019-05-05T01:30:29.162Z,83.30
2019-05-05T01:33:00.541Z,84.00
2019-05-05T01:35:30.542Z,83.50
2019-05-05T01:38:11.264Z,83.90
2019-05-05T01:40:45.499Z,83.70
2019-05-05T01:43:15.461Z,83.00
2019-05-05T01:45:45.365Z,83.30
2019-05-05T01:48:15.357Z,83.90
2019-05-05T01:50:45.357Z,84.10
2019-05-05T01:53:15.294Z,83.80
2019-05-05T01:55:45.420Z,84.20
2019-05-05T01:58:16.085Z,84.70
2019-05-05T02:00:46.090Z,84.20
2019-05-05T02:03:16.346Z,85.00
2019-05-05T02:05:46.145Z,84.50
2019-05-05T02:08:35.128Z,84.40
2019-05-05T02:11:05.382Z,84.10
2019-05-05T02:13:35.222Z,83.80
2019-05-05T02:16:05.291Z,83.80
2019-05-05T02:18:34.982Z,84.00
2019-05-05T02:21:06.359Z,83.90
2019-05-05T02:23:56.931Z,83.90
2019-05-05T02:26:26.836Z,83.90
2019-05-05T02:29:00.832Z,84.00
2019-05-05T02:31:48.307Z,83.90
2019-05-05T02:34:17.958Z,84.10
2019-05-05T02:36:47.779Z,83.70
2019-05-05T02:39:17.314Z,83.60
2019-05-05T02:41:47.062Z,83.60
2019-05-05T02:44:18.196Z,83.80
2019-05-05T02:46:50.443Z,84.40
2019-05-05T02:49:20.415Z,83.90
2019-05-05T02:51:50.994Z,84.40
2019-05-05T02:54:21.969Z,84.00
2019-05-05T02:56:53.966Z,84.20
2019-05-05T02:59:35.287Z,88.50
2019-05-05T03:02:06.697Z,83.90
2019-05-05T03:04:37.005Z,84.60
2019-05-05T03:07:09.337Z,84.00
2019-05-05T03:09:39.713Z,85.00
2019-05-05T03:12:11.087Z,84.10
2019-05-05T03:14:44.601Z,85.20
2019-05-05T03:17:15.607Z,84.40
2019-05-05T03:19:45.077Z,84.70
2019-05-05T03:22:14.941Z,88.70
2019-05-05T03:24:45.985Z,85.10
2019-05-05T03:27:16.205Z,85.60
2019-05-05T03:29:46.946Z,85.00
2019-05-05T03:32:16.806Z,85.00
2019-05-05T03:34:46.697Z,85.30
2019-05-05T03:37:16.779Z,85.20
2019-05-05T03:39:48.297Z,85.60
2019-05-05T03:42:24.477Z,85.00
2019-05-05T03:44:56.308Z,85.40
2019-05-05T03:47:26.314Z,85.20
2019-05-05T03:49:56.718Z,85.40
2019-05-05T03:52:26.749Z,85.50
2019-05-05T03:54:56.776Z,85.70
2019-05-05T03:57:26.724Z,85.30
2019-05-05T03:59:57.101Z,85.90
2019-05-05T04:02:34.451Z,85.70
2019-05-05T04:05:06.316Z,85.50
2019-05-05T04:07:36.360Z,85.30
2019-05-05T04:10:07.376Z,85.30
2019-05-05T04:12:37.302Z,85.80
2019-05-05T04:15:07.309Z,85.20
2019-05-05T04:17:44.718Z,85.90
2019-05-05T04:20:19.702Z,85.50
2019-05-05T04:22:49.479Z,85.70
2019-05-05T04:25:18.997Z,85.00
2019-05-05T04:27:48.917Z,85.50
2019-05-05T04:30:18.821Z,84.90
2019-05-05T04:32:48.664Z,86.10
2019-05-05T04:35:19.384Z,85.40
2019-05-05T04:37:48.913Z,85.30
2019-05-05T04:40:18.425Z,86.00
2019-05-05T04:42:47.961Z,85.80
2019-05-05T04:45:17.954Z,86.10
2019-05-05T04:47:55.729Z,86.10
2019-05-05T04:50:30.272Z,85.90
2019-05-05T04:53:01.621Z,86.00
2019-05-05T04:55:34.793Z,86.10
2019-05-05T04:58:08.084Z,85.80
2019-05-05T05:00:37.902Z,85.90
2019-05-05T05:06:08.149Z,85.70
2019-05-05T05:08:37.960Z,85.70
2019-05-05T05:11:07.554Z,85.80
2019-05-05T05:13:37.356Z,85.60
2019-05-05T05:16:07.372Z,86.00
2019-05-05T05:18:37.206Z,86.10
2019-05-05T05:21:07.107Z,86.00
2019-05-05T05:23:36.637Z,85.80
2019-05-05T05:26:06.527Z,86.10
2019-05-05T05:28:36.449Z,86.30
2019-05-05T05:31:06.353Z,86.50
2019-05-05T05:33:36.277Z,86.70
2019-05-05T05:36:06.248Z,86.60
2019-05-05T05:38:36.109Z,86.60
2019-05-05T05:41:07.658Z,86.90
2019-05-05T05:43:39.201Z,87.10
2019-05-05T05:46:10.780Z,87.20
2019-05-05T05:48:43.435Z,86.80
2019-05-05T05:51:14.729Z,87.00
2019-05-05T05:53:44.598Z,86.90
2019-05-05T05:56:14.525Z,86.90
2019-05-05T05:58:44.423Z,87.20
2019-05-05T06:01:14.742Z,86.60
2019-05-05T06:03:44.659Z,86.60
2019-05-05T06:06:14.196Z,86.60
2019-05-05T06:08:44.107Z,86.70
2019-05-05T06:11:14.091Z,86.50
2019-05-05T06:13:45.053Z,86.90
2019-05-05T06:16:15.569Z,86.80
2019-05-05T06:18:45.384Z,87.20
2019-05-05T06:21:15.405Z,87.70
2019-05-05T06:23:45.653Z,87.80
2019-05-05T06:26:15.639Z,87.10
2019-05-05T06:28:45.446Z,86.90
2019-05-05T06:31:15.256Z,86.70
2019-05-05T06:33:44.904Z,87.10
2019-05-05T06:36:14.793Z,86.50
2019-05-05T06:38:44.321Z,86.40
2019-05-05T06:41:27.625Z,87.50
2019-05-05T06:44:14.268Z,86.90
2019-05-05T06:46:48.570Z,87.00
2019-05-05T06:49:19.188Z,87.00
2019-05-05T06:51:48.730Z,86.90
2019-05-05T06:54:18.688Z,86.90
2019-05-05T06:56:48.624Z,87.00
2019-05-05T06:59:18.523Z,87.00
2019-05-05T07:01:48.534Z,86.70
2019-05-05T07:04:19.186Z,86.80
2019-05-05T07:06:54.107Z,86.90
2019-05-05T07:09:20.682Z,86.80
2019-05-05T07:11:50.594Z,86.50
2019-05-05T07:14:20.510Z,86.50
2019-05-05T07:16:50.400Z,86.10
2019-05-05T07:19:20.298Z,85.80
2019-05-05T07:21:50.285Z,86.10
2019-05-05T07:24:20.136Z,85.90
2019-05-05T07:26:50.063Z,85.40
2019-05-05T07:29:19.968Z,85.80
2019-05-05T07:31:49.866Z,84.50
2019-05-05T07:34:20.731Z,85.00
2019-05-05T07:36:49.952Z,84.50
2019-05-05T07:39:19.697Z,84.20
2019-05-05T07:41:49.930Z,84.20
2019-05-05T07:44:27.684Z,85.20
2019-05-05T07:46:51.468Z,85.20
2019-05-05T07:49:21.389Z,84.80
2019-05-05T07:51:51.250Z,84.40
2019-05-05T07:54:21.188Z,84.30
2019-05-05T07:56:51.061Z,84.00
2019-05-05T07:59:20.995Z,83.90
2019-05-05T08:01:50.900Z,82.80
2019-05-05T08:04:20.819Z,83.30
2019-05-05T08:06:50.338Z,82.30
2019-05-05T08:09:21.805Z,82.90
2019-05-05T08:11:51.358Z,82.50
2019-05-05T08:14:20.897Z,81.70
2019-05-05T08:16:55.156Z,82.30
2019-05-05T08:19:32.093Z,82.10
2019-05-05T08:22:03.616Z,81.90
2019-05-05T08:24:34.877Z,82.70
2019-05-05T08:27:21.906Z,82.50
2019-05-05T08:29:55.948Z,82.90
2019-05-05T08:32:27.156Z,82.80
2019-05-05T08:35:00.535Z,82.90
2019-05-05T08:37:28.256Z,82.40
2019-05-05T08:39:58.139Z,82.10
2019-05-05T08:42:27.665Z,82.20
2019-05-05T08:44:57.551Z,81.50
2019-05-05T08:47:28.312Z,81.80
2019-05-05T08:49:58.196Z,81.10
2019-05-05T08:52:27.859Z,81.60
2019-05-05T08:54:57.620Z,81.30
2019-05-05T08:57:27.206Z,80.60
2019-05-05T08:59:57.104Z,80.40
2019-05-05T09:02:27.056Z,80.20
2019-05-05T09:04:56.951Z,80.20
2019-05-05T09:07:26.477Z,79.70
2019-05-05T09:09:58.068Z,79.50
2019-05-05T09:12:28.921Z,79.50
2019-05-05T09:14:58.692Z,79.00
2019-05-05T09:17:28.579Z,79.50
2019-05-05T09:19:58.492Z,79.10
2019-05-05T09:22:28.577Z,79.50
2019-05-05T09:25:01.192Z,79.60
2019-05-05T09:27:38.831Z,79.00
2019-05-05T09:30:10.777Z,78.00
2019-05-05T09:32:40.843Z,77.80
2019-05-05T09:35:10.798Z,76.80
2019-05-05T09:37:40.680Z,76.10
2019-05-05T09:40:10.833Z,76.30
2019-05-05T09:42:40.960Z,77.10
2019-05-05T09:45:10.991Z,76.50
2019-05-05T09:47:40.681Z,77.60
2019-05-05T09:50:11.140Z,76.00
2019-05-05T09:52:40.922Z,76.40
2019-05-05T09:55:11.105Z,76.20
2019-05-05T09:57:40.730Z,76.90
2019-05-05T10:00:14.020Z,76.80
2019-05-05T10:02:44.252Z,76.50
2019-05-05T10:05:14.713Z,76.50
2019-05-05T10:07:44.563Z,76.30
2019-05-05T10:10:14.733Z,76.60
2019-05-05T10:12:44.654Z,76.70
2019-05-05T10:15:15.956Z,76.10
2019-05-05T10:17:45.791Z,76.50
2019-05-05T10:20:16.015Z,77.30
2019-05-05T10:22:45.624Z,76.20
2019-05-05T10:25:37.451Z,77.50
2019-05-05T10:28:07.149Z,77.30
2019-05-05T10:30:37.114Z,79.50
2019-05-05T10:33:08.518Z,80.80
2019-05-05T10:35:39.400Z,82.30
2019-05-05T10:38:09.336Z,82.40
2019-05-05T10:40:39.221Z,83.00
2019-05-05T10:43:09.105Z,82.60
2019-05-05T10:45:38.998Z,83.30
2019-05-05T10:48:09.261Z,83.40
2019-05-05T10:50:38.859Z,82.80
2019-05-05T10:53:08.742Z,82.40
2019-05-05T10:55:38.266Z,82.50
2019-05-05T10:58:07.815Z,81.80
2019-05-05T11:00:44.329Z,82.00
2019-05-05T11:03:15.137Z,82.00
2019-05-05T11:05:45.076Z,82.00
2019-05-05T11:08:15.550Z,82.60
2019-05-05T11:10:45.352Z,82.30
2019-05-05T11:13:15.193Z,82.30
2019-05-05T11:15:45.917Z,80.80
2019-05-05T11:18:15.808Z,80.00
2019-05-05T11:21:04.834Z,79.40
2019-05-05T11:23:34.728Z,78.50
2019-05-05T11:26:04.773Z,78.70
2019-05-05T11:28:34.748Z,78.50
2019-05-05T11:31:04.730Z,77.70
2019-05-05T11:33:48.446Z,76.70
2019-05-05T11:36:19.982Z,77.30
2019-05-05T11:38:49.901Z,76.60
2019-05-05T11:41:20.632Z,75.80
2019-05-05T11:43:50.553Z,76.00
2019-05-05T11:46:20.477Z,76.40
2019-05-05T11:48:50.365Z,76.90
2019-05-05T11:51:20.310Z,75.10
2019-05-05T11:53:50.195Z,76.00
2019-05-05T11:56:20.191Z,76.10
2019-05-05T11:58:50.098Z,75.40
2019-05-05T12:01:19.948Z,75.20
2019-05-05T12:03:49.885Z,74.80
2019-05-05T12:06:19.942Z,73.10
2019-05-05T12:08:49.694Z,71.80
2019-05-05T12:11:19.603Z,70.40
2019-05-05T12:13:49.514Z,70.80
2019-05-05T12:16:34.499Z,71.00
2019-05-05T12:19:05.325Z,72.10
2019-05-05T12:21:37.300Z,71.40
2019-05-05T12:24:08.466Z,70.70
2019-05-05T12:26:48.744Z,72.60
2019-05-05T12:29:18.666Z,71.50
2019-05-05T12:31:49.113Z,71.40
2019-05-05T12:34:18.732Z,71.00
2019-05-05T12:36:48.293Z,73.10
2019-05-05T12:39:18.222Z,72.00
2019-05-05T12:41:48.085Z,72.90
2019-05-05T12:44:19.250Z,71.20
2019-05-05T12:47:05.789Z,71.20
2019-05-05T12:49:35.422Z,72.10
2019-05-05T12:52:05.132Z,73.40
2019-05-05T12:54:34.848Z,74.10
2019-05-05T12:57:04.519Z,74.60
2019-05-05T12:59:34.268Z,75.10
2019-05-05T13:02:04.533Z,74.70
2019-05-05T13:04:34.141Z,74.80
2019-05-05T13:07:04.953Z,74.90
2019-05-05T13:09:35.559Z,74.70
2019-05-05T13:12:05.380Z,74.20
2019-05-05T13:14:36.715Z,72.30
2019-05-05T13:17:06.719Z,73.90
2019-05-05T13:19:52.833Z,72.30
2019-05-05T13:22:33.780Z,71.70
2019-05-05T13:25:10.669Z,70.70
2019-05-05T13:27:41.916Z,71.50
2019-05-05T13:30:12.172Z,69.90
2019-05-05T13:32:41.722Z,69.40
2019-05-05T13:35:14.219Z,68.40
2019-05-05T13:37:44.397Z,67.70
2019-05-05T13:40:15.304Z,68.50
2019-05-05T13:42:45.088Z,66.30
2019-05-05T13:45:47.775Z,65.20
2019-05-05T13:48:17.337Z,64.40
2019-05-05T13:50:48.909Z,65.40
2019-05-05T13:53:18.773Z,64.70
2019-05-05T13:55:48.661Z,65.40
2019-05-05T13:58:18.627Z,66.20
2019-05-05T14:00:48.500Z,66.80
2019-05-05T14:03:18.433Z,67.90
2019-05-05T14:05:48.325Z,68.70
2019-05-05T14:08:18.237Z,69.00
2019-05-05T14:10:48.179Z,67.70
2019-05-05T14:13:18.156Z,67.80
2019-05-05T14:15:47.998Z,67.40
2019-05-05T14:18:17.887Z,68.30
2019-05-05T14:20:47.426Z,68.10
2019-05-05T14:23:17.677Z,65.80
2019-05-05T14:25:47.286Z,67.00
2019-05-05T14:28:18.261Z,66.20
2019-05-05T14:30:58.886Z,66.10
2019-05-05T14:33:30.316Z,67.40
2019-05-05T14:36:04.800Z,66.50
2019-05-05T14:38:36.459Z,66.00
2019-05-05T14:41:06.340Z,65.10
2019-05-05T14:43:35.953Z,64.40
2019-05-05T14:46:05.834Z,64.70
2019-05-05T14:48:37.208Z,64.90
2019-05-05T14:51:07.441Z,64.80
2019-05-05T14:53:37.186Z,65.00
2019-05-05T14:56:06.776Z,65.30
2019-05-05T14:58:36.601Z,65.90
2019-05-05T15:01:06.192Z,66.00
2019-05-05T15:03:36.027Z,66.80
2019-05-05T15:06:07.218Z,66.60
2019-05-05T15:08:47.522Z,66.70
2019-05-05T15:11:28.017Z,66.90
2019-05-05T15:13:58.712Z,65.90
2019-05-05T15:16:28.650Z,64.80
2019-05-05T15:18:58.541Z,66.20
2019-05-05T15:21:28.567Z,66.80
2019-05-05T15:24:04.809Z,65.80
2019-05-05T15:26:34.514Z,65.90
2019-05-05T15:29:04.436Z,65.60
2019-05-05T15:31:34.326Z,62.20
2019-05-05T15:34:04.283Z,62.60
2019-05-05T15:36:34.101Z,62.00
2019-05-05T15:39:07.381Z,62.40
2019-05-05T15:41:37.210Z,60.70
2019-05-05T15:44:07.114Z,61.20
2019-05-05T15:46:37.333Z,61.10
2019-05-05T15:49:06.956Z,60.40
2019-05-05T15:51:37.066Z,60.70
2019-05-05T15:54:06.777Z,61.30
2019-05-05T15:56:36.770Z,61.90
2019-05-05T15:59:06.585Z,61.60
2019-05-05T16:01:36.509Z,62.50
2019-05-05T16:04:06.442Z,61.70
2019-05-05T16:06:36.344Z,61.20
2019-05-05T16:09:07.593Z,62.00
2019-05-05T16:11:37.394Z,61.70
2019-05-05T16:14:07.323Z,61.40
2019-05-05T16:16:38.840Z,61.90
2019-05-05T16:19:27.953Z,61.20
2019-05-05T16:22:01.366Z,60.60
2019-05-05T16:24:36.601Z,61.20
2019-05-05T16:27:18.818Z,61.30
2019-05-05T16:29:38.765Z,62.90
2019-05-05T16:32:21.193Z,62.70
2019-05-05T16:34:40.222Z,62.80
2019-05-05T16:37:10.154Z,63.40
2019-05-05T16:39:40.057Z,62.20
2019-05-05T16:42:09.954Z,62.00
2019-05-05T16:44:39.885Z,61.90
2019-05-05T16:47:09.838Z,62.20
2019-05-05T16:49:39.744Z,61.60
2019-05-05T16:52:11.313Z,61.00
2019-05-05T16:54:42.809Z,61.70
2019-05-05T16:57:14.277Z,61.70
2019-05-05T16:59:44.228Z,62.30
2019-05-05T17:02:14.375Z,62.50
2019-05-05T17:04:44.118Z,63.20
2019-05-05T17:07:14.280Z,63.60
2019-05-05T17:09:43.977Z,63.60
2019-05-05T17:12:14.210Z,62.90
2019-05-05T17:14:45.882Z,63.90
2019-05-05T17:17:34.212Z,63.20
2019-05-05T17:20:14.110Z,63.10
2019-05-05T17:22:48.450Z,64.20
2019-05-05T17:25:20.405Z,62.80
2019-05-05T17:27:51.284Z,62.20
2019-05-05T17:30:24.505Z,63.40
2019-05-05T17:32:54.500Z,62.80
2019-05-05T17:35:24.575Z,62.30
2019-05-05T17:37:56.119Z,61.90
2019-05-05T17:40:27.706Z,61.40
2019-05-05T17:43:24.395Z,61.70
2019-05-05T17:46:00.369Z,61.20
2019-05-05T17:48:40.545Z,60.60
2019-05-05T17:51:13.902Z,60.10
2019-05-05T17:54:01.680Z,59.50
2019-05-05T17:56:33.490Z,60.10
2019-05-05T17:59:03.545Z,59.70
2019-05-05T18:01:33.699Z,59.60
2019-05-05T18:04:04.145Z,60.00
2019-05-05T18:06:38.365Z,60.10
2019-05-05T18:09:11.198Z,60.30
2019-05-05T18:11:48.828Z,60.40
2019-05-05T18:14:20.093Z,61.00
2019-05-05T18:16:50.029Z,60.70
2019-05-05T18:19:19.925Z,60.50
2019-05-05T18:21:49.838Z,62.00
2019-05-05T18:24:19.765Z,60.30
2019-05-05T18:26:49.664Z,60.40
2019-05-05T18:29:19.254Z,61.00
2019-05-05T18:31:49.093Z,60.80
2019-05-05T18:34:19.015Z,61.50
2019-05-05T18:36:48.926Z,61.50
2019-05-05T18:39:19.660Z,61.70
2019-05-05T18:41:53.961Z,62.10
2019-05-05T18:44:25.301Z,62.20
2019-05-05T18:47:15.733Z,62.60
2019-05-05T18:49:43.485Z,63.80
2019-05-05T18:52:13.902Z,63.40
2019-05-05T18:54:43.845Z,63.40
2019-05-05T18:57:13.660Z,63.80
2019-05-05T18:59:44.829Z,63.70
2019-05-05T19:02:34.746Z,64.40
2019-05-05T19:05:11.201Z,65.10
2019-05-05T19:07:53.052Z,64.50
2019-05-05T19:10:13.965Z,64.90
2019-05-05T19:12:44.289Z,65.00
2019-05-05T19:15:14.658Z,65.20
2019-05-05T19:17:44.579Z,65.10
2019-05-05T19:20:16.395Z,65.50
2019-05-05T19:22:46.041Z,66.00
2019-05-05T19:25:15.988Z,66.20
2019-05-05T19:27:46.928Z,66.40
2019-05-05T19:30:16.109Z,66.50
2019-05-05T19:32:45.705Z,67.70
2019-05-05T19:35:15.693Z,66.90
2019-05-05T19:37:45.902Z,66.80
2019-05-05T19:40:15.796Z,66.80
2019-05-05T19:42:46.330Z,67.20
2019-05-05T19:45:16.250Z,67.30
2019-05-05T19:47:45.995Z,67.70
2019-05-05T19:50:19.109Z,67.70
2019-05-05T19:52:48.700Z,67.80
2019-05-05T19:55:18.638Z,68.10
2019-05-05T19:57:48.596Z,68.80
2019-05-05T20:00:19.183Z,68.10
2019-05-05T20:03:01.429Z,68.10
2019-05-05T20:05:20.741Z,68.40
2019-05-05T20:07:50.645Z,68.50
2019-05-05T20:10:20.573Z,68.50
2019-05-05T20:12:50.480Z,68.10
2019-05-05T20:15:24.712Z,69.00
2019-05-05T20:17:54.485Z,68.70
2019-05-05T20:20:24.348Z,68.70
2019-05-05T20:22:54.764Z,68.30
2019-05-05T20:25:24.564Z,68.30
2019-05-05T20:27:56.076Z,69.50
2019-05-05T20:30:26.138Z,69.20
2019-05-05T20:33:09.546Z,69.50
2019-05-05T20:35:41.236Z,69.30
2019-05-05T20:38:14.264Z,69.90
2019-05-05T20:40:45.760Z,69.70
2019-05-05T20:43:15.276Z,70.10
2019-05-05T20:45:45.174Z,70.40
2019-05-05T20:48:14.885Z,70.10
2019-05-05T20:50:44.583Z,70.30
2019-05-05T20:53:14.156Z,70.30
2019-05-05T20:55:44.733Z,70.70
2019-05-05T20:58:15.165Z,70.50
2019-05-05T21:00:44.710Z,71.00
2019-05-05T21:03:14.586Z,71.10
2019-05-05T21:05:44.297Z,71.30
2019-05-05T21:08:14.220Z,71.70
2019-05-05T21:10:44.309Z,71.90
2019-05-05T21:13:14.455Z,71.70
2019-05-05T21:15:47.348Z,71.90
2019-05-05T21:18:17.021Z,72.10
2019-05-05T21:20:47.653Z,71.70
2019-05-05T21:23:28.077Z,71.90
2019-05-05T21:26:13.849Z,72.30
2019-05-05T21:28:44.481Z,72.90
2019-05-05T21:31:14.575Z,72.90
2019-05-05T21:33:45.223Z,73.60
2019-05-05T21:36:15.517Z,74.00
2019-05-05T21:38:45.441Z,73.60
2019-05-05T21:41:15.349Z,73.30
2019-05-05T21:43:46.098Z,74.10
2019-05-05T21:46:16.010Z,74.00
2019-05-05T21:48:45.917Z,73.40
2019-05-05T21:51:26.533Z,73.50
2019-05-05T21:53:57.717Z,73.90
2019-05-05T21:56:45.804Z,73.80
2019-05-05T21:59:15.469Z,73.90
2019-05-05T22:01:49.314Z,73.90
2019-05-05T22:04:16.985Z,74.00
2019-05-05T22:06:46.845Z,74.10
2019-05-05T22:09:16.776Z,74.10
2019-05-05T22:11:46.666Z,74.20
2019-05-05T22:14:16.633Z,74.60
2019-05-05T22:16:46.510Z,75.00
2019-05-05T22:19:18.006Z,74.60
2019-05-05T22:21:51.949Z,74.50
2019-05-05T22:24:22.742Z,74.60
2019-05-05T22:26:54.126Z,75.90
2019-05-05T22:29:24.940Z,74.80
2019-05-05T22:31:55.049Z,75.20
2019-05-05T22:34:25.322Z,75.60
2019-05-05T22:36:55.251Z,75.60
2019-05-05T22:39:25.154Z,76.00
2019-05-05T22:41:54.722Z,75.80
2019-05-05T22:44:24.566Z,75.70
2019-05-05T22:46:54.178Z,75.50
2019-05-05T22:49:24.285Z,75.50
2019-05-05T22:51:54.325Z,75.40
2019-05-05T22:54:24.210Z,75.50
2019-05-05T22:56:54.219Z,75.40
2019-05-05T22:59:26.092Z,75.00
2019-05-05T23:01:55.629Z,75.40
2019-05-05T23:04:30.652Z,75.00
2019-05-05T23:07:11.022Z,75.30
2019-05-05T23:09:40.622Z,74.80
2019-05-05T23:12:10.434Z,74.70
2019-05-05T23:14:39.958Z,75.20
2019-05-05T23:17:26.538Z,75.10
2019-05-05T23:20:00.970Z,75.30
2019-05-05T23:22:41.186Z,75.10
2019-05-05T23:25:19.916Z,74.90
2019-05-05T23:27:50.431Z,75.20
2019-05-05T23:30:23.816Z,75.10
2019-05-05T23:32:54.833Z,75.20
2019-05-05T23:35:24.867Z,75.50
2019-05-05T23:37:55.305Z,75.60
2019-05-05T23:40:27.361Z,76.00
2019-05-05T23:42:58.248Z,76.10
2019-05-05T23:45:27.328Z,76.00
2019-05-05T23:47:56.857Z,79.90
2019-05-05T23:50:26.754Z,76.40
2019-05-05T23:52:56.667Z,76.60
2019-05-05T23:55:26.195Z,76.70
2019-05-05T23:57:56.120Z,77.10
